sensor_id;sensor_type;location;lat;lon;timestamp;temperature;humidity
10175;DHT22;18221;38.704;0.152;2022-11-15T00:23:42;17.50;99.90
10175;DHT22;18221;38.704;0.152;2022-11-15T00:26:12;17.50;99.90
10175;DHT22;18221;38.704;0.152;2022-11-15T00:28:41;17.50;99.90
10175;DHT22;18221;38.704;0.152;2022-11-15T00:31:12;17.50;99.90
10175;DHT22;18221;38.704;0.152;2022-11-15T00:33:43;17.50;99.90
10175;DHT22;18221;38.704;0.152;2022-11-15T00:36:12;17.50;99.90
10175;DHT22;18221;38.704;0.152;2022-11-15T00:38:41;17.40;99.90
10175;DHT22;18221;38.704;0.152;2022-11-15T00:41:09;17.40;99.90
10175;DHT22;18221;38.704;0.152;2022-11-15T00:43:37;17.40;99.90
10175;DHT22;18221;38.704;0.152;2022-11-15T00:46:05;17.40;99.90
10175;DHT22;18221;38.704;0.152;2022-11-15T00:48:34;17.40;99.90
10175;DHT22;18221;38.704;0.152;2022-11-15T00:51:03;17.30;99.90
10175;DHT22;18221;38.704;0.152;2022-11-15T00:53:30;17.30;99.90
10175;DHT22;18221;38.704;0.152;2022-11-15T00:56:00;17.30;99.90
10175;DHT22;18221;38.704;0.152;2022-11-15T00:58:27;17.30;99.90
10175;DHT22;18221;38.704;0.152;2022-11-15T01:00:55;17.20;99.90
10175;DHT22;18221;38.704;0.152;2022-11-15T01:03:23;17.20;99.90
10175;DHT22;18221;38.704;0.152;2022-11-15T01:05:51;17.20;99.90
10175;DHT22;18221;38.704;0.152;2022-11-15T01:08:19;17.10;99.90
10175;DHT22;18221;38.704;0.152;2022-11-15T01:10:47;17.10;99.90
10175;DHT22;18221;38.704;0.152;2022-11-15T01:13:16;17.10;99.90
10175;DHT22;18221;38.704;0.152;2022-11-15T01:15:44;17.10;99.90
10175;DHT22;18221;38.704;0.152;2022-11-15T01:18:11;17.00;99.90
10175;DHT22;18221;38.704;0.152;2022-11-15T01:20:40;17.10;99.90
10175;DHT22;18221;38.704;0.152;2022-11-15T01:23:08;17.10;99.90
10175;DHT22;18221;38.704;0.152;2022-11-15T01:25:37;17.10;99.90
10175;DHT22;18221;38.704;0.152;2022-11-15T01:28:04;17.10;99.90
10175;DHT22;18221;38.704;0.152;2022-11-15T01:30:35;17.20;99.90
10175;DHT22;18221;38.704;0.152;2022-11-15T01:33:03;17.20;99.90
10175;DHT22;18221;38.704;0.152;2022-11-15T01:35:31;17.20;99.90
10175;DHT22;18221;38.704;0.152;2022-11-15T01:37:59;17.20;99.90
10175;DHT22;18221;38.704;0.152;2022-11-15T01:40:27;17.30;99.90
10175;DHT22;18221;38.704;0.152;2022-11-15T01:42:55;17.30;99.90
10175;DHT22;18221;38.704;0.152;2022-11-15T01:45:23;17.30;99.90
10175;DHT22;18221;38.704;0.152;2022-11-15T01:47:53;17.30;99.90
10175;DHT22;18221;38.704;0.152;2022-11-15T01:50:25;17.40;99.90
10175;DHT22;18221;38.704;0.152;2022-11-15T01:52:56;17.40;99.90
10175;DHT22;18221;38.704;0.152;2022-11-15T01:55:26;17.40;99.90
10175;DHT22;18221;38.704;0.152;2022-11-15T01:57:57;17.40;99.90
10175;DHT22;18221;38.704;0.152;2022-11-15T02:00:29;17.30;99.90
10175;DHT22;18221;38.704;0.152;2022-11-15T02:02:59;17.30;99.90
10175;DHT22;18221;38.704;0.152;2022-11-15T02:08:00;17.30;99.90
10175;DHT22;18221;38.704;0.152;2022-11-15T02:10:28;17.30;99.90
10175;DHT22;18221;38.704;0.152;2022-11-15T02:12:57;17.40;99.90
10175;DHT22;18221;38.704;0.152;2022-11-15T02:15:33;17.40;99.90
10175;DHT22;18221;38.704;0.152;2022-11-15T02:18:17;17.50;99.90
10175;DHT22;18221;38.704;0.152;2022-11-15T02:21:05;17.50;99.90
10175;DHT22;18221;38.704;0.152;2022-11-15T02:24:24;17.60;99.90
10175;DHT22;18221;38.704;0.152;2022-11-15T02:27:47;17.60;99.90
10175;DHT22;18221;38.704;0.152;2022-11-15T02:30:41;17.60;99.90
10175;DHT22;18221;38.704;0.152;2022-11-15T02:33:21;17.60;99.90
10175;DHT22;18221;38.704;0.152;2022-11-15T02:35:59;17.50;99.90
10175;DHT22;18221;38.704;0.152;2022-11-15T02:38:32;17.60;99.90
10175;DHT22;18221;38.704;0.152;2022-11-15T02:41:10;17.50;99.90
10175;DHT22;18221;38.704;0.152;2022-11-15T02:43:46;17.50;99.90
10175;DHT22;18221;38.704;0.152;2022-11-15T02:46:32;17.50;99.90
10175;DHT22;18221;38.704;0.152;2022-11-15T02:49:23;17.50;99.90
10175;DHT22;18221;38.704;0.152;2022-11-15T02:51:55;17.50;99.90
10175;DHT22;18221;38.704;0.152;2022-11-15T02:54:26;17.50;99.90
10175;DHT22;18221;38.704;0.152;2022-11-15T02:57:00;17.50;99.90
10175;DHT22;18221;38.704;0.152;2022-11-15T03:00:01;17.50;99.90
10175;DHT22;18221;38.704;0.152;2022-11-15T03:02:59;17.60;99.90
10175;DHT22;18221;38.704;0.152;2022-11-15T03:05:44;17.50;99.90
10175;DHT22;18221;38.704;0.152;2022-11-15T03:08:24;17.60;99.90
10175;DHT22;18221;38.704;0.152;2022-11-15T03:11:06;17.60;99.90
10175;DHT22;18221;38.704;0.152;2022-11-15T03:13:42;17.50;99.90
10175;DHT22;18221;38.704;0.152;2022-11-15T03:16:25;17.50;99.90
10175;DHT22;18221;38.704;0.152;2022-11-15T03:19:04;17.50;99.90
10175;DHT22;18221;38.704;0.152;2022-11-15T03:21:40;17.50;99.90
10175;DHT22;18221;38.704;0.152;2022-11-15T03:24:12;17.40;99.90
10175;DHT22;18221;38.704;0.152;2022-11-15T03:26:45;17.40;99.90
10175;DHT22;18221;38.704;0.152;2022-11-15T03:29:19;17.40;99.90
10175;DHT22;18221;38.704;0.152;2022-11-15T03:31:55;17.30;99.90
10175;DHT22;18221;38.704;0.152;2022-11-15T03:34:32;17.30;99.90
10175;DHT22;18221;38.704;0.152;2022-11-15T03:37:06;17.20;99.90
10175;DHT22;18221;38.704;0.152;2022-11-15T03:39:35;17.20;99.90
10175;DHT22;18221;38.704;0.152;2022-11-15T03:42:11;17.10;99.90
10175;DHT22;18221;38.704;0.152;2022-11-15T03:44:56;17.10;99.90
10175;DHT22;18221;38.704;0.152;2022-11-15T03:47:34;17.20;99.90
10175;DHT22;18221;38.704;0.152;2022-11-15T03:50:10;17.20;99.90
10175;DHT22;18221;38.704;0.152;2022-11-15T03:52:41;17.30;99.90
10175;DHT22;18221;38.704;0.152;2022-11-15T03:55:15;17.30;99.90
10175;DHT22;18221;38.704;0.152;2022-11-15T03:57:45;17.30;99.90
10175;DHT22;18221;38.704;0.152;2022-11-15T04:00:14;17.40;99.90
10175;DHT22;18221;38.704;0.152;2022-11-15T04:02:43;17.50;99.90
10175;DHT22;18221;38.704;0.152;2022-11-15T04:05:12;17.50;99.90
10175;DHT22;18221;38.704;0.152;2022-11-15T04:07:40;17.40;99.90
10175;DHT22;18221;38.704;0.152;2022-11-15T04:10:09;17.40;99.90
10175;DHT22;18221;38.704;0.152;2022-11-15T04:12:39;17.40;99.90
10175;DHT22;18221;38.704;0.152;2022-11-15T04:15:11;17.30;99.90
10175;DHT22;18221;38.704;0.152;2022-11-15T04:17:42;17.40;99.90
10175;DHT22;18221;38.704;0.152;2022-11-15T04:20:14;17.40;99.90
10175;DHT22;18221;38.704;0.152;2022-11-15T04:23:01;17.40;99.90
10175;DHT22;18221;38.704;0.152;2022-11-15T04:25:50;17.40;99.90
10175;DHT22;18221;38.704;0.152;2022-11-15T04:28:20;17.30;99.90
10175;DHT22;18221;38.704;0.152;2022-11-15T04:30:48;17.30;99.90
10175;DHT22;18221;38.704;0.152;2022-11-15T04:33:16;17.30;99.90
10175;DHT22;18221;38.704;0.152;2022-11-15T04:35:46;17.20;99.90
10175;DHT22;18221;38.704;0.152;2022-11-15T04:38:34;17.10;99.90
10175;DHT22;18221;38.704;0.152;2022-11-15T04:41:02;17.10;99.90
10175;DHT22;18221;38.704;0.152;2022-11-15T04:43:30;17.10;99.90
10175;DHT22;18221;38.704;0.152;2022-11-15T04:45:58;17.00;99.90
10175;DHT22;18221;38.704;0.152;2022-11-15T04:48:26;17.00;99.90
10175;DHT22;18221;38.704;0.152;2022-11-15T04:50:55;16.90;99.90
10175;DHT22;18221;38.704;0.152;2022-11-15T04:53:23;16.90;99.90
10175;DHT22;18221;38.704;0.152;2022-11-15T04:55:51;16.90;99.90
10175;DHT22;18221;38.704;0.152;2022-11-15T04:58:19;16.90;99.90
10175;DHT22;18221;38.704;0.152;2022-11-15T05:00:46;16.90;99.90
10175;DHT22;18221;38.704;0.152;2022-11-15T05:03:14;16.90;99.90
10175;DHT22;18221;38.704;0.152;2022-11-15T05:06:01;16.90;99.90
10175;DHT22;18221;38.704;0.152;2022-11-15T05:08:29;16.90;99.90
10175;DHT22;18221;38.704;0.152;2022-11-15T05:10:57;16.90;99.90
10175;DHT22;18221;38.704;0.152;2022-11-15T05:13:25;16.90;99.90
10175;DHT22;18221;38.704;0.152;2022-11-15T05:15:53;17.00;99.90
10175;DHT22;18221;38.704;0.152;2022-11-15T05:18:21;17.00;99.90
10175;DHT22;18221;38.704;0.152;2022-11-15T05:20:48;17.00;99.90
10175;DHT22;18221;38.704;0.152;2022-11-15T05:23:18;17.00;99.90
10175;DHT22;18221;38.704;0.152;2022-11-15T05:25:45;17.00;99.90
10175;DHT22;18221;38.704;0.152;2022-11-15T05:28:13;17.00;99.90
10175;DHT22;18221;38.704;0.152;2022-11-15T05:30:41;16.90;99.90
10175;DHT22;18221;38.704;0.152;2022-11-15T05:33:09;16.90;99.90
10175;DHT22;18221;38.704;0.152;2022-11-15T05:35:40;16.90;99.90
10175;DHT22;18221;38.704;0.152;2022-11-15T05:38:13;16.90;99.90
10175;DHT22;18221;38.704;0.152;2022-11-15T05:40:43;16.90;99.90
10175;DHT22;18221;38.704;0.152;2022-11-15T05:43:11;16.90;99.90
10175;DHT22;18221;38.704;0.152;2022-11-15T05:45:39;17.00;99.90
10175;DHT22;18221;38.704;0.152;2022-11-15T05:48:08;16.90;99.90
10175;DHT22;18221;38.704;0.152;2022-11-15T05:50:38;16.90;99.90
10175;DHT22;18221;38.704;0.152;2022-11-15T05:53:08;16.90;99.90
10175;DHT22;18221;38.704;0.152;2022-11-15T05:55:38;17.00;99.90
10175;DHT22;18221;38.704;0.152;2022-11-15T05:58:08;17.00;99.90
10175;DHT22;18221;38.704;0.152;2022-11-15T06:00:37;17.00;99.90
10175;DHT22;18221;38.704;0.152;2022-11-15T06:03:05;17.00;99.90
10175;DHT22;18221;38.704;0.152;2022-11-15T06:05:32;17.10;99.90
10175;DHT22;18221;38.704;0.152;2022-11-15T06:08:00;17.10;99.90
10175;DHT22;18221;38.704;0.152;2022-11-15T06:10:28;17.10;99.90
10175;DHT22;18221;38.704;0.152;2022-11-15T06:12:57;17.10;99.90
10175;DHT22;18221;38.704;0.152;2022-11-15T06:15:27;17.10;99.90
10175;DHT22;18221;38.704;0.152;2022-11-15T06:17:56;17.10;99.90
10175;DHT22;18221;38.704;0.152;2022-11-15T06:20:25;17.10;99.90
10175;DHT22;18221;38.704;0.152;2022-11-15T06:22:57;17.10;99.90
10175;DHT22;18221;38.704;0.152;2022-11-15T06:25:25;17.10;99.90
10175;DHT22;18221;38.704;0.152;2022-11-15T06:27:54;17.10;99.90
10175;DHT22;18221;38.704;0.152;2022-11-15T06:30:24;17.10;99.90
10175;DHT22;18221;38.704;0.152;2022-11-15T06:32:59;17.00;99.90
10175;DHT22;18221;38.704;0.152;2022-11-15T06:35:28;17.00;99.90
10175;DHT22;18221;38.704;0.152;2022-11-15T06:38:02;17.00;99.90
10175;DHT22;18221;38.704;0.152;2022-11-15T06:40:33;17.00;99.90
10175;DHT22;18221;38.704;0.152;2022-11-15T06:43:02;16.90;99.90
10175;DHT22;18221;38.704;0.152;2022-11-15T06:45:32;16.90;99.90
10175;DHT22;18221;38.704;0.152;2022-11-15T06:48:00;16.90;99.90
10175;DHT22;18221;38.704;0.152;2022-11-15T06:50:28;16.90;99.90
10175;DHT22;18221;38.704;0.152;2022-11-15T06:53:00;16.90;99.90
10175;DHT22;18221;38.704;0.152;2022-11-15T06:55:29;16.80;99.90
10175;DHT22;18221;38.704;0.152;2022-11-15T06:57:57;16.90;99.90
10175;DHT22;18221;38.704;0.152;2022-11-15T07:00:24;16.90;99.90
10175;DHT22;18221;38.704;0.152;2022-11-15T07:02:54;16.90;99.90
10175;DHT22;18221;38.704;0.152;2022-11-15T07:05:22;16.90;99.90
10175;DHT22;18221;38.704;0.152;2022-11-15T07:07:53;16.90;99.90
10175;DHT22;18221;38.704;0.152;2022-11-15T07:10:22;16.90;99.90
10175;DHT22;18221;38.704;0.152;2022-11-15T07:12:51;17.00;99.90
10175;DHT22;18221;38.704;0.152;2022-11-15T07:15:22;17.00;99.90
10175;DHT22;18221;38.704;0.152;2022-11-15T07:17:53;16.90;99.90
10175;DHT22;18221;38.704;0.152;2022-11-15T07:20:21;16.90;99.90
10175;DHT22;18221;38.704;0.152;2022-11-15T07:22:49;16.90;99.90
10175;DHT22;18221;38.704;0.152;2022-11-15T07:25:17;16.90;99.90
10175;DHT22;18221;38.704;0.152;2022-11-15T07:27:54;16.80;99.90
10175;DHT22;18221;38.704;0.152;2022-11-15T07:30:22;16.80;99.90
10175;DHT22;18221;38.704;0.152;2022-11-15T07:32:54;16.80;99.90
10175;DHT22;18221;38.704;0.152;2022-11-15T07:35:22;16.80;99.90
10175;DHT22;18221;38.704;0.152;2022-11-15T07:37:54;16.90;99.90
10175;DHT22;18221;38.704;0.152;2022-11-15T07:40:23;15.30;99.90
10175;DHT22;18221;38.704;0.152;2022-11-15T07:42:51;16.90;99.90
10175;DHT22;18221;38.704;0.152;2022-11-15T07:45:24;16.90;99.90
10175;DHT22;18221;38.704;0.152;2022-11-15T07:47:54;16.90;99.90
10175;DHT22;18221;38.704;0.152;2022-11-15T07:50:23;16.90;99.90
10175;DHT22;18221;38.704;0.152;2022-11-15T07:52:54;16.90;99.90
10175;DHT22;18221;38.704;0.152;2022-11-15T07:55:23;16.00;99.90
10175;DHT22;18221;38.704;0.152;2022-11-15T07:57:52;16.90;99.90
10175;DHT22;18221;38.704;0.152;2022-11-15T08:00:26;17.00;99.90
10175;DHT22;18221;38.704;0.152;2022-11-15T08:03:03;17.00;99.90
10175;DHT22;18221;38.704;0.152;2022-11-15T08:05:32;17.10;99.90
10175;DHT22;18221;38.704;0.152;2022-11-15T08:08:01;17.10;99.90
10175;DHT22;18221;38.704;0.152;2022-11-15T08:10:29;17.10;99.90
10175;DHT22;18221;38.704;0.152;2022-11-15T08:12:58;17.20;99.90
10175;DHT22;18221;38.704;0.152;2022-11-15T08:15:27;17.30;99.90
10175;DHT22;18221;38.704;0.152;2022-11-15T08:17:56;17.30;99.90
10175;DHT22;18221;38.704;0.152;2022-11-15T08:20:27;17.40;99.90
10175;DHT22;18221;38.704;0.152;2022-11-15T08:22:56;17.40;99.90
10175;DHT22;18221;38.704;0.152;2022-11-15T08:25:26;17.40;99.90
10175;DHT22;18221;38.704;0.152;2022-11-15T08:27:57;17.50;99.90
10175;DHT22;18221;38.704;0.152;2022-11-15T08:30:26;17.50;99.90
10175;DHT22;18221;38.704;0.152;2022-11-15T08:32:57;17.60;99.90
10175;DHT22;18221;38.704;0.152;2022-11-15T08:35:27;17.60;99.90
10175;DHT22;18221;38.704;0.152;2022-11-15T08:37:55;17.60;99.90
10175;DHT22;18221;38.704;0.152;2022-11-15T08:40:23;17.70;99.90
10175;DHT22;18221;38.704;0.152;2022-11-15T08:42:52;17.80;99.90
10175;DHT22;18221;38.704;0.152;2022-11-15T08:45:20;17.90;99.90
10175;DHT22;18221;38.704;0.152;2022-11-15T08:47:48;18.00;99.90
10175;DHT22;18221;38.704;0.152;2022-11-15T08:50:16;18.10;99.90
10175;DHT22;18221;38.704;0.152;2022-11-15T08:52:47;18.20;99.90
10175;DHT22;18221;38.704;0.152;2022-11-15T08:55:15;18.30;99.90
10175;DHT22;18221;38.704;0.152;2022-11-15T08:57:43;18.40;99.90
10175;DHT22;18221;38.704;0.152;2022-11-15T09:00:12;18.40;99.90
10175;DHT22;18221;38.704;0.152;2022-11-15T09:02:41;18.40;99.90
10175;DHT22;18221;38.704;0.152;2022-11-15T09:05:09;18.50;99.90
10175;DHT22;18221;38.704;0.152;2022-11-15T09:07:36;18.50;99.90
10175;DHT22;18221;38.704;0.152;2022-11-15T09:10:07;18.50;99.90
10175;DHT22;18221;38.704;0.152;2022-11-15T09:12:35;18.50;99.90
10175;DHT22;18221;38.704;0.152;2022-11-15T09:15:04;18.50;99.90
10175;DHT22;18221;38.704;0.152;2022-11-15T09:17:33;18.50;99.90
10175;DHT22;18221;38.704;0.152;2022-11-15T09:20:01;18.50;99.90
10175;DHT22;18221;38.704;0.152;2022-11-15T09:22:29;18.50;99.90
10175;DHT22;18221;38.704;0.152;2022-11-15T09:24:57;18.60;99.90
10175;DHT22;18221;38.704;0.152;2022-11-15T09:27:29;18.60;99.90
10175;DHT22;18221;38.704;0.152;2022-11-15T09:29:57;18.50;99.90
10175;DHT22;18221;38.704;0.152;2022-11-15T09:32:28;18.60;99.90
10175;DHT22;18221;38.704;0.152;2022-11-15T09:34:57;18.70;99.90
10175;DHT22;18221;38.704;0.152;2022-11-15T09:37:25;18.70;99.90
10175;DHT22;18221;38.704;0.152;2022-11-15T09:39:53;18.70;99.90
10175;DHT22;18221;38.704;0.152;2022-11-15T09:42:36;18.70;99.90
10175;DHT22;18221;38.704;0.152;2022-11-15T09:45:20;18.80;99.90
10175;DHT22;18221;38.704;0.152;2022-11-15T09:48:18;18.80;99.90
10175;DHT22;18221;38.704;0.152;2022-11-15T09:50:58;18.80;99.90
10175;DHT22;18221;38.704;0.152;2022-11-15T09:53:31;18.70;99.90
10175;DHT22;18221;38.704;0.152;2022-11-15T09:56:10;18.70;99.90
10175;DHT22;18221;38.704;0.152;2022-11-15T09:58:53;18.70;99.90
10175;DHT22;18221;38.704;0.152;2022-11-15T10:01:36;18.70;99.90
10175;DHT22;18221;38.704;0.152;2022-11-15T10:04:12;18.60;99.90
10175;DHT22;18221;38.704;0.152;2022-11-15T10:06:45;18.60;99.90
10175;DHT22;18221;38.704;0.152;2022-11-15T10:09:22;18.60;99.90
10175;DHT22;18221;38.704;0.152;2022-11-15T10:11:52;18.60;99.90
10175;DHT22;18221;38.704;0.152;2022-11-15T10:14:25;18.60;99.90
10175;DHT22;18221;38.704;0.152;2022-11-15T10:17:19;18.60;99.90
10175;DHT22;18221;38.704;0.152;2022-11-15T10:20:08;18.60;99.90
10175;DHT22;18221;38.704;0.152;2022-11-15T10:22:46;18.60;99.90
10175;DHT22;18221;38.704;0.152;2022-11-15T10:25:22;18.60;99.90
10175;DHT22;18221;38.704;0.152;2022-11-15T10:27:57;18.60;99.90
10175;DHT22;18221;38.704;0.152;2022-11-15T10:30:33;18.60;99.90
10175;DHT22;18221;38.704;0.152;2022-11-15T10:33:20;18.60;99.90
10175;DHT22;18221;38.704;0.152;2022-11-15T10:36:20;18.60;99.90
10175;DHT22;18221;38.704;0.152;2022-11-15T10:38:55;18.60;99.90
10175;DHT22;18221;38.704;0.152;2022-11-15T10:41:38;18.60;99.90
10175;DHT22;18221;38.704;0.152;2022-11-15T10:44:26;18.70;99.90
10175;DHT22;18221;38.704;0.152;2022-11-15T10:47:24;18.70;99.90
10175;DHT22;18221;38.704;0.152;2022-11-15T10:50:00;18.70;99.90
10175;DHT22;18221;38.704;0.152;2022-11-15T10:52:31;18.80;99.90
10175;DHT22;18221;38.704;0.152;2022-11-15T10:55:19;18.80;99.90
10175;DHT22;18221;38.704;0.152;2022-11-15T10:57:51;18.80;99.90
10175;DHT22;18221;38.704;0.152;2022-11-15T11:00:32;18.90;99.90
10175;DHT22;18221;38.704;0.152;2022-11-15T11:03:04;18.90;99.90
10175;DHT22;18221;38.704;0.152;2022-11-15T11:05:47;18.90;99.90
10175;DHT22;18221;38.704;0.152;2022-11-15T11:08:23;18.90;99.90
10175;DHT22;18221;38.704;0.152;2022-11-15T11:10:55;18.90;99.90
10175;DHT22;18221;38.704;0.152;2022-11-15T11:13:26;18.90;99.90
10175;DHT22;18221;38.704;0.152;2022-11-15T11:16:04;18.90;99.90
10175;DHT22;18221;38.704;0.152;2022-11-15T11:18:57;18.90;99.90
10175;DHT22;18221;38.704;0.152;2022-11-15T11:21:42;19.00;99.90
10175;DHT22;18221;38.704;0.152;2022-11-15T11:24:21;19.00;99.90
10175;DHT22;18221;38.704;0.152;2022-11-15T11:27:13;19.00;99.90
10175;DHT22;18221;38.704;0.152;2022-11-15T11:30:07;19.00;99.90
10175;DHT22;18221;38.704;0.152;2022-11-15T11:32:52;19.00;99.90
10175;DHT22;18221;38.704;0.152;2022-11-15T11:35:36;19.00;99.90
10175;DHT22;18221;38.704;0.152;2022-11-15T11:38:32;19.00;99.90
10175;DHT22;18221;38.704;0.152;2022-11-15T11:41:13;19.00;99.90
10175;DHT22;18221;38.704;0.152;2022-11-15T11:43:55;19.00;99.90
10175;DHT22;18221;38.704;0.152;2022-11-15T11:46:53;19.00;99.90
10175;DHT22;18221;38.704;0.152;2022-11-15T11:49:30;19.00;99.90
10175;DHT22;18221;38.704;0.152;2022-11-15T11:52:10;19.00;99.90
10175;DHT22;18221;38.704;0.152;2022-11-15T11:54:50;19.00;99.90
10175;DHT22;18221;38.704;0.152;2022-11-15T11:57:34;19.00;99.90
10175;DHT22;18221;38.704;0.152;2022-11-15T12:00:17;19.10;99.90
10175;DHT22;18221;38.704;0.152;2022-11-15T12:02:54;19.10;99.90
10175;DHT22;18221;38.704;0.152;2022-11-15T12:05:35;19.00;99.90
10175;DHT22;18221;38.704;0.152;2022-11-15T12:08:22;19.00;99.90
10175;DHT22;18221;38.704;0.152;2022-11-15T12:11:02;19.00;99.90
10175;DHT22;18221;38.704;0.152;2022-11-15T12:13:36;19.00;99.90
10175;DHT22;18221;38.704;0.152;2022-11-15T12:16:10;19.00;99.90
10175;DHT22;18221;38.704;0.152;2022-11-15T12:18:47;19.00;99.90
10175;DHT22;18221;38.704;0.152;2022-11-15T12:21:21;19.00;99.90
10175;DHT22;18221;38.704;0.152;2022-11-15T12:24:01;19.20;99.90
10175;DHT22;18221;38.704;0.152;2022-11-15T12:26:35;19.30;99.90
10175;DHT22;18221;38.704;0.152;2022-11-15T12:29:11;19.50;99.90
10175;DHT22;18221;38.704;0.152;2022-11-15T12:31:49;19.60;99.90
10175;DHT22;18221;38.704;0.152;2022-11-15T12:34:38;19.80;99.90
10175;DHT22;18221;38.704;0.152;2022-11-15T12:56:22;19.60;99.90
10175;DHT22;18221;38.704;0.152;2022-11-15T12:58:54;19.60;99.90
10175;DHT22;18221;38.704;0.152;2022-11-15T13:01:57;19.60;99.90
10175;DHT22;18221;38.704;0.152;2022-11-15T13:04:29;19.50;99.90
10175;DHT22;18221;38.704;0.152;2022-11-15T13:06:59;19.60;99.90
10175;DHT22;18221;38.704;0.152;2022-11-15T13:09:52;19.70;99.90
10175;DHT22;18221;38.704;0.152;2022-11-15T13:12:53;19.80;99.90
10175;DHT22;18221;38.704;0.152;2022-11-15T13:15:38;19.80;99.90
10175;DHT22;18221;38.704;0.152;2022-11-15T13:18:29;19.90;99.90
10175;DHT22;18221;38.704;0.152;2022-11-15T13:21:03;19.90;99.90
10175;DHT22;18221;38.704;0.152;2022-11-15T13:24:03;20.10;99.90
10175;DHT22;18221;38.704;0.152;2022-11-15T13:26:33;20.20;99.90
10175;DHT22;18221;38.704;0.152;2022-11-15T13:29:01;20.20;99.90
10175;DHT22;18221;38.704;0.152;2022-11-15T13:31:34;20.30;99.90
10175;DHT22;18221;38.704;0.152;2022-11-15T13:34:25;20.30;99.90
10175;DHT22;18221;38.704;0.152;2022-11-15T13:36:55;20.20;99.90
10175;DHT22;18221;38.704;0.152;2022-11-15T13:39:28;20.10;99.90
10175;DHT22;18221;38.704;0.152;2022-11-15T13:41:59;20.00;99.90
10175;DHT22;18221;38.704;0.152;2022-11-15T13:44:29;19.90;99.90
10175;DHT22;18221;38.704;0.152;2022-11-15T13:47:04;19.80;99.90
10175;DHT22;18221;38.704;0.152;2022-11-15T13:49:34;19.70;99.90
10175;DHT22;18221;38.704;0.152;2022-11-15T13:52:06;19.70;99.90
10175;DHT22;18221;38.704;0.152;2022-11-15T13:54:37;19.60;99.90
10175;DHT22;18221;38.704;0.152;2022-11-15T13:57:14;19.70;99.90
10175;DHT22;18221;38.704;0.152;2022-11-15T13:59:48;19.60;99.90
10175;DHT22;18221;38.704;0.152;2022-11-15T14:02:20;19.50;99.90
10175;DHT22;18221;38.704;0.152;2022-11-15T14:04:54;19.50;99.90
10175;DHT22;18221;38.704;0.152;2022-11-15T14:07:26;19.50;99.90
10175;DHT22;18221;38.704;0.152;2022-11-15T14:09:55;19.50;99.90
10175;DHT22;18221;38.704;0.152;2022-11-15T14:12:30;19.50;99.90
10175;DHT22;18221;38.704;0.152;2022-11-15T14:15:01;19.50;99.90
10175;DHT22;18221;38.704;0.152;2022-11-15T14:17:45;19.40;99.90
10175;DHT22;18221;38.704;0.152;2022-11-15T14:20:30;19.50;99.90
10175;DHT22;18221;38.704;0.152;2022-11-15T14:23:01;19.50;99.90
10175;DHT22;18221;38.704;0.152;2022-11-15T14:25:31;19.50;99.90
10175;DHT22;18221;38.704;0.152;2022-11-15T14:28:29;19.50;99.90
10175;DHT22;18221;38.704;0.152;2022-11-15T14:31:10;19.50;99.90
10175;DHT22;18221;38.704;0.152;2022-11-15T14:33:40;19.40;99.90
10175;DHT22;18221;38.704;0.152;2022-11-15T14:36:13;19.40;99.90
10175;DHT22;18221;38.704;0.152;2022-11-15T14:38:42;19.30;99.90
10175;DHT22;18221;38.704;0.152;2022-11-15T14:41:18;19.40;99.90
10175;DHT22;18221;38.704;0.152;2022-11-15T14:43:49;19.40;99.90
10175;DHT22;18221;38.704;0.152;2022-11-15T14:46:18;19.40;99.90
10175;DHT22;18221;38.704;0.152;2022-11-15T14:48:46;19.40;99.90
10175;DHT22;18221;38.704;0.152;2022-11-15T14:51:16;19.40;99.90
10175;DHT22;18221;38.704;0.152;2022-11-15T14:53:45;19.40;99.90
10175;DHT22;18221;38.704;0.152;2022-11-15T14:56:14;19.40;99.90
10175;DHT22;18221;38.704;0.152;2022-11-15T14:58:42;19.40;99.90
10175;DHT22;18221;38.704;0.152;2022-11-15T15:01:14;19.40;99.90
10175;DHT22;18221;38.704;0.152;2022-11-15T15:03:46;19.40;99.90
10175;DHT22;18221;38.704;0.152;2022-11-15T15:06:14;19.50;99.90
10175;DHT22;18221;38.704;0.152;2022-11-15T15:08:42;19.50;99.90
10175;DHT22;18221;38.704;0.152;2022-11-15T15:11:12;19.60;99.90
10175;DHT22;18221;38.704;0.152;2022-11-15T15:13:41;19.60;99.90
10175;DHT22;18221;38.704;0.152;2022-11-15T15:16:09;19.60;99.90
10175;DHT22;18221;38.704;0.152;2022-11-15T15:18:39;19.50;99.90
10175;DHT22;18221;38.704;0.152;2022-11-15T15:21:18;19.40;99.90
10175;DHT22;18221;38.704;0.152;2022-11-15T15:23:48;19.40;99.90
10175;DHT22;18221;38.704;0.152;2022-11-15T15:26:16;19.30;99.90
10175;DHT22;18221;38.704;0.152;2022-11-15T15:28:44;19.30;99.90
10175;DHT22;18221;38.704;0.152;2022-11-15T15:31:15;19.30;99.90
10175;DHT22;18221;38.704;0.152;2022-11-15T15:33:43;19.30;99.90
10175;DHT22;18221;38.704;0.152;2022-11-15T15:36:12;19.20;99.90
10175;DHT22;18221;38.704;0.152;2022-11-15T15:38:41;19.20;99.90
10175;DHT22;18221;38.704;0.152;2022-11-15T15:41:10;19.20;99.90
10175;DHT22;18221;38.704;0.152;2022-11-15T15:43:39;19.20;99.90
10175;DHT22;18221;38.704;0.152;2022-11-15T15:46:09;19.20;99.90
10175;DHT22;18221;38.704;0.152;2022-11-15T15:48:40;19.10;99.90
10175;DHT22;18221;38.704;0.152;2022-11-15T15:51:08;19.10;99.90
10175;DHT22;18221;38.704;0.152;2022-11-15T15:53:36;19.10;99.90
10175;DHT22;18221;38.704;0.152;2022-11-15T15:56:04;19.10;99.90
10175;DHT22;18221;38.704;0.152;2022-11-15T15:58:33;19.10;99.90
10175;DHT22;18221;38.704;0.152;2022-11-15T16:01:01;19.20;99.90
10175;DHT22;18221;38.704;0.152;2022-11-15T16:03:29;19.20;99.90
10175;DHT22;18221;38.704;0.152;2022-11-15T16:05:59;19.20;99.90
10175;DHT22;18221;38.704;0.152;2022-11-15T16:08:30;19.00;99.90
10175;DHT22;18221;38.704;0.152;2022-11-15T16:10:57;19.20;99.90
10175;DHT22;18221;38.704;0.152;2022-11-15T16:13:25;19.20;99.90
10175;DHT22;18221;38.704;0.152;2022-11-15T16:15:54;19.10;99.90
10175;DHT22;18221;38.704;0.152;2022-11-15T16:18:22;19.10;99.90
10175;DHT22;18221;38.704;0.152;2022-11-15T16:20:50;19.00;99.90
10175;DHT22;18221;38.704;0.152;2022-11-15T16:23:23;19.00;99.90
10175;DHT22;18221;38.704;0.152;2022-11-15T16:25:52;19.00;99.90
10175;DHT22;18221;38.704;0.152;2022-11-15T16:28:24;19.00;99.90
10175;DHT22;18221;38.704;0.152;2022-11-15T16:31:00;19.00;99.90
10175;DHT22;18221;38.704;0.152;2022-11-15T16:33:29;19.00;99.90
10175;DHT22;18221;38.704;0.152;2022-11-15T16:35:57;18.90;99.90
10175;DHT22;18221;38.704;0.152;2022-11-15T16:38:26;18.90;99.90
10175;DHT22;18221;38.704;0.152;2022-11-15T16:40:54;18.90;99.90
10175;DHT22;18221;38.704;0.152;2022-11-15T16:43:23;18.80;99.90
10175;DHT22;18221;38.704;0.152;2022-11-15T16:45:50;18.80;99.90
10175;DHT22;18221;38.704;0.152;2022-11-15T16:48:22;18.80;99.90
10175;DHT22;18221;38.704;0.152;2022-11-15T16:50:54;18.80;99.90
10175;DHT22;18221;38.704;0.152;2022-11-15T16:53:23;18.70;99.90